Terminal Aerodrome Forecast
Issued by NWS

Home | Current Version | Previous Version | Text Only | Print | Product List | Glossary On
Versions: 1 2 3 4 5 6 7 8 9 10 11 12 13 14 15 16
000
FTUS43 KAPX 290520
TAFAPN
TAF
KAPN 290520Z 2906/3006 00000KT P6SM SCT060 BKN120
     FM291400 04006KT P6SM VCSH BKN050 OVC100
     FM300000 00000KT P6SM SCT120 SCT220=

USA.gov is the U.S. government's official web portal to all federal, state and local government web resources and services.